createdAt,value
2022-09-30T00:01:39.669Z,27.27
2022-09-30T00:04:09.192Z,27.98
2022-09-30T00:06:37.131Z,29.67
2022-09-30T00:09:06.108Z,29.20
2022-09-30T00:11:38.610Z,28.73
2022-09-30T00:16:37.658Z,27.27
2022-09-30T00:19:06.100Z,28.43
2022-09-30T00:21:34.814Z,31.23
2022-09-30T00:24:03.650Z,29.83
2022-09-30T00:26:32.651Z,30.92
2022-09-30T00:29:03.099Z,29.15
2022-09-30T00:31:33.769Z,29.58
2022-09-30T00:34:08.312Z,28.67
2022-09-30T00:36:39.801Z,28.25
2022-09-30T00:39:09.044Z,27.02
2022-09-30T00:41:37.502Z,26.55
2022-09-30T00:44:38.884Z,26.35
2022-09-30T00:47:28.488Z,26.33
2022-09-30T00:50:00.749Z,25.80
2022-09-30T00:52:29.936Z,24.02
2022-09-30T00:55:00.607Z,25.77
2022-09-30T00:57:29.136Z,25.63
2022-09-30T00:59:57.333Z,26.38
2022-09-30T01:02:26.488Z,26.48
2022-09-30T01:04:55.140Z,26.52
2022-09-30T01:07:24.740Z,26.35
2022-09-30T01:09:53.378Z,27.50
2022-09-30T01:12:25.159Z,26.42
2022-09-30T01:14:55.853Z,26.60
2022-09-30T01:17:37.887Z,25.00
2022-09-30T01:23:10.271Z,24.52
2022-09-30T01:26:03.863Z,23.95
2022-09-30T01:29:06.929Z,23.58
2022-09-30T01:31:51.268Z,23.90
2022-09-30T01:34:29.137Z,24.23
2022-09-30T01:37:08.929Z,23.67
2022-09-30T01:39:48.476Z,23.88
2022-09-30T01:42:26.756Z,24.15
2022-09-30T01:45:03.649Z,23.55
2022-09-30T01:47:38.166Z,22.58
2022-09-30T01:50:10.852Z,23.90
2022-09-30T01:52:46.102Z,22.90
2022-09-30T01:55:19.821Z,22.33
2022-09-30T01:57:56.565Z,24.25
2022-09-30T02:00:24.605Z,22.35
2022-09-30T02:02:57.806Z,22.58
2022-09-30T02:05:31.929Z,22.75
2022-09-30T02:08:03.884Z,22.35
2022-09-30T02:10:36.276Z,23.75
2022-09-30T02:13:10.712Z,23.38
2022-09-30T02:15:42.078Z,24.23
2022-09-30T02:18:17.085Z,26.50
2022-09-30T02:20:48.267Z,25.48
2022-09-30T02:23:21.059Z,29.38
2022-09-30T02:25:55.690Z,29.90
2022-09-30T02:28:28.374Z,30.25
2022-09-30T02:30:59.375Z,31.08
2022-09-30T02:33:34.449Z,30.83
2022-09-30T02:36:08.017Z,30.10
2022-09-30T02:38:40.890Z,32.05
2022-09-30T02:41:13.206Z,33.75
2022-09-30T02:43:42.717Z,34.28
2022-09-30T02:46:19.850Z,35.17
2022-09-30T02:48:57.924Z,33.45
2022-09-30T02:51:37.569Z,33.33
2022-09-30T02:54:16.206Z,34.38
2022-09-30T02:56:52.382Z,35.58
2022-09-30T02:59:21.137Z,35.65
2022-09-30T03:01:49.582Z,35.67
2022-09-30T03:04:22.795Z,35.42
2022-09-30T03:06:51.250Z,36.17
2022-09-30T03:09:19.373Z,36.35
2022-09-30T03:11:48.738Z,35.72
2022-09-30T03:14:36.892Z,35.25
2022-09-30T03:17:41.373Z,34.78
2022-09-30T03:20:35.922Z,34.58
2022-09-30T03:23:36.265Z,35.83
2022-09-30T03:26:15.057Z,34.67
2022-09-30T03:28:49.801Z,34.70
2022-09-30T03:31:28.396Z,34.60
2022-09-30T03:34:03.587Z,35.65
2022-09-30T03:36:40.409Z,35.22
2022-09-30T03:39:17.806Z,35.53
2022-09-30T03:41:52.249Z,35.50
2022-09-30T03:44:25.829Z,34.13
2022-09-30T03:46:57.282Z,34.17
2022-09-30T03:49:29.529Z,32.30
2022-09-30T03:52:00.678Z,32.78
2022-09-30T03:54:29.413Z,35.42
2022-09-30T03:56:57.109Z,34.85
2022-09-30T03:59:27.902Z,34.83
2022-09-30T04:01:57.010Z,34.15
2022-09-30T04:04:25.817Z,32.63
2022-09-30T04:06:53.863Z,33.67
2022-09-30T04:09:23.101Z,33.53
2022-09-30T04:11:51.317Z,33.40
2022-09-30T04:14:19.329Z,33.85
2022-09-30T04:16:50.687Z,34.40
2022-09-30T04:19:22.194Z,35.80
2022-09-30T04:21:52.448Z,35.78
2022-09-30T04:24:20.220Z,35.15
2022-09-30T04:26:50.392Z,34.75
2022-09-30T04:29:18.742Z,35.35
2022-09-30T04:31:46.642Z,35.70
2022-09-30T04:34:15.090Z,36.25
2022-09-30T04:36:43.628Z,38.90
2022-09-30T04:39:11.724Z,36.45
2022-09-30T04:41:40.741Z,38.50
2022-09-30T04:44:10.557Z,37.05
2022-09-30T04:46:38.318Z,37.45
2022-09-30T04:49:09.268Z,39.38
2022-09-30T04:51:38.367Z,37.15
2022-09-30T04:54:06.172Z,36.95
2022-09-30T04:56:34.430Z,37.08
2022-09-30T04:59:02.151Z,36.47
2022-09-30T05:01:31.229Z,38.47
2022-09-30T05:03:59.430Z,37.58
2022-09-30T05:06:27.377Z,37.28
2022-09-30T05:08:55.095Z,40.17
2022-09-30T05:11:23.950Z,37.35
2022-09-30T05:13:51.928Z,37.67
2022-09-30T05:16:19.915Z,37.10
2022-09-30T05:18:49.552Z,35.85
2022-09-30T05:21:20.535Z,36.95
2022-09-30T05:23:48.757Z,37.30
2022-09-30T05:26:17.094Z,34.08
2022-09-30T05:28:45.369Z,34.97
2022-09-30T05:31:13.655Z,36.10
2022-09-30T05:33:42.273Z,35.40
2022-09-30T05:36:15.474Z,36.58
2022-09-30T05:38:43.980Z,32.85
2022-09-30T05:41:13.441Z,34.22
2022-09-30T05:43:42.104Z,34.83
2022-09-30T05:46:10.409Z,34.03
2022-09-30T05:48:38.200Z,35.28
2022-09-30T05:51:07.458Z,37.35
2022-09-30T05:53:39.536Z,33.55
2022-09-30T05:56:09.261Z,34.85
2022-09-30T05:58:40.566Z,32.83
2022-09-30T06:01:13.446Z,33.00
2022-09-30T06:03:42.348Z,32.03
2022-09-30T06:06:10.925Z,32.63
2022-09-30T06:08:41.340Z,32.45
2022-09-30T06:11:12.973Z,30.23
2022-09-30T06:13:41.742Z,31.70
2022-09-30T06:16:11.608Z,31.45
2022-09-30T06:18:41.268Z,31.80
2022-09-30T06:21:11.304Z,32.17
2022-09-30T06:23:41.042Z,29.38
2022-09-30T06:26:11.623Z,30.50
2022-09-30T06:28:40.189Z,30.60
2022-09-30T06:31:08.544Z,31.08
2022-09-30T06:33:36.681Z,30.77
2022-09-30T06:36:06.127Z,29.95
2022-09-30T06:38:37.081Z,31.25
2022-09-30T06:41:08.219Z,28.73
2022-09-30T06:43:39.282Z,28.77
2022-09-30T06:46:18.886Z,29.50
2022-09-30T06:48:49.809Z,31.05
2022-09-30T06:51:17.876Z,26.50
2022-09-30T06:53:48.102Z,28.25
2022-09-30T07:10:23.118Z,30.77
2022-09-30T07:13:14.101Z,25.90
2022-09-30T07:15:42.887Z,27.33
2022-09-30T07:18:10.925Z,27.70
2022-09-30T07:20:38.618Z,26.52
2022-09-30T07:23:06.514Z,25.83
2022-09-30T07:25:36.054Z,27.98
2022-09-30T07:28:03.824Z,25.25
2022-09-30T07:30:31.816Z,24.20
2022-09-30T07:32:59.860Z,24.67
2022-09-30T07:35:27.592Z,25.52
2022-09-30T07:37:59.863Z,26.02
2022-09-30T07:40:43.859Z,24.98
2022-09-30T07:43:17.068Z,24.90
2022-09-30T07:45:59.357Z,27.02
2022-09-30T09:05:00.319Z,33.15
2022-09-30T09:07:41.725Z,30.27
2022-09-30T09:10:25.100Z,32.30
2022-09-30T09:13:02.214Z,32.60
2022-09-30T09:15:43.213Z,31.95
2022-09-30T09:18:40.228Z,28.33
2022-09-30T09:21:23.674Z,26.55
2022-09-30T09:23:54.064Z,28.70
2022-09-30T09:26:21.857Z,30.20
2022-09-30T09:29:07.426Z,25.45
2022-09-30T09:31:35.954Z,23.80
2022-09-30T09:34:11.098Z,24.02
2022-09-30T09:36:53.613Z,26.35
2022-09-30T09:39:38.528Z,25.27
2022-09-30T09:42:20.970Z,23.13
2022-09-30T09:44:57.117Z,23.27
2022-09-30T09:47:25.231Z,23.75
2022-09-30T09:49:58.405Z,24.85
2022-09-30T09:52:52.069Z,23.83
2022-09-30T09:55:23.134Z,29.50
2022-09-30T09:58:06.245Z,47.22
2022-09-30T10:00:51.909Z,54.10
2022-09-30T10:03:23.524Z,28.42
2022-09-30T10:06:12.897Z,24.88
2022-09-30T10:08:54.825Z,28.40
2022-09-30T10:11:24.806Z,61.33
2022-09-30T10:13:57.239Z,62.33
2022-09-30T10:16:29.367Z,40.92
2022-09-30T10:18:58.388Z,29.90
2022-09-30T10:21:28.286Z,30.65
2022-09-30T10:24:20.282Z,26.60
2022-09-30T10:26:49.171Z,28.27
2022-09-30T10:29:27.795Z,44.33
2022-09-30T10:31:59.751Z,46.17
2022-09-30T10:37:02.285Z,39.88
2022-09-30T10:39:34.521Z,65.15
2022-09-30T10:42:07.247Z,32.97
2022-09-30T10:44:43.670Z,30.27
2022-09-30T10:47:16.322Z,32.50
2022-09-30T10:49:47.278Z,22.77
2022-09-30T10:52:20.066Z,28.77
2022-09-30T10:54:52.283Z,25.23
2022-09-30T10:57:23.421Z,25.30
2022-09-30T10:59:53.421Z,40.97
2022-09-30T11:02:29.921Z,34.25
2022-09-30T11:05:08.584Z,17.08
2022-09-30T11:07:45.907Z,21.50
2022-09-30T11:10:28.577Z,18.38
2022-09-30T11:13:05.595Z,16.45
2022-09-30T11:15:43.415Z,17.10
2022-09-30T11:18:20.278Z,25.88
2022-09-30T11:20:55.223Z,25.40
2022-09-30T11:23:29.569Z,19.13
2022-09-30T11:26:06.145Z,20.73
2022-09-30T11:28:54.512Z,15.55
2022-09-30T11:31:31.201Z,16.13
2022-09-30T11:34:14.681Z,15.52
2022-09-30T11:36:51.786Z,15.73
2022-09-30T11:39:37.482Z,13.48
2022-09-30T11:42:15.210Z,13.00
2022-09-30T11:44:45.815Z,14.13
2022-09-30T11:47:47.095Z,13.75
2022-09-30T11:50:33.977Z,13.10
2022-09-30T11:53:13.157Z,12.70
2022-09-30T11:55:57.470Z,11.60
2022-09-30T11:58:42.172Z,11.25
2022-09-30T12:01:21.718Z,12.55
2022-09-30T12:03:58.023Z,15.27
2022-09-30T12:06:33.027Z,18.80
2022-09-30T12:09:07.638Z,19.15
2022-09-30T12:11:43.353Z,20.77
2022-09-30T12:14:20.447Z,23.50
2022-09-30T12:16:51.184Z,23.48
2022-09-30T12:19:25.777Z,23.15
2022-09-30T12:21:59.960Z,22.20
2022-09-30T12:24:33.816Z,20.42
2022-09-30T12:27:02.642Z,23.85
2022-09-30T12:29:53.848Z,30.73
2022-09-30T12:32:56.528Z,22.35
2022-09-30T12:35:43.459Z,20.60
2022-09-30T12:38:30.672Z,22.52
2022-09-30T14:18:34.693Z,16.23
2022-09-30T14:21:21.382Z,15.35
2022-09-30T14:23:58.249Z,16.52
2022-09-30T14:26:42.641Z,17.75
2022-09-30T14:29:21.053Z,17.35
2022-09-30T14:31:49.528Z,17.02
2022-09-30T14:34:20.647Z,17.63
2022-09-30T14:36:50.609Z,16.90
2022-09-30T14:39:22.202Z,18.58
2022-09-30T14:41:52.724Z,18.05
2022-09-30T14:44:22.617Z,18.92
2022-09-30T14:46:52.569Z,15.30
2022-09-30T14:49:29.886Z,16.77
2022-09-30T14:52:03.111Z,16.58
2022-09-30T14:54:32.874Z,15.73
2022-09-30T14:57:02.916Z,17.65
2022-09-30T14:59:33.218Z,15.80
2022-09-30T15:02:04.394Z,18.77
2022-09-30T15:04:35.371Z,17.90
2022-09-30T15:07:07.183Z,19.27
2022-09-30T15:09:37.574Z,21.05
2022-09-30T15:12:07.400Z,19.63
2022-09-30T15:14:35.218Z,19.75
2022-09-30T15:17:06.168Z,18.70
2022-09-30T15:19:43.087Z,19.90
2022-09-30T15:22:15.005Z,19.83
2022-09-30T15:24:44.301Z,20.00
2022-09-30T15:27:20.648Z,31.67
2022-09-30T15:29:56.179Z,18.55
2022-09-30T15:32:25.553Z,17.25
2022-09-30T15:34:54.268Z,18.55
2022-09-30T15:37:25.425Z,16.42
2022-09-30T15:40:07.906Z,16.73
2022-09-30T15:42:44.253Z,17.08
2022-09-30T15:45:34.550Z,17.77
2022-09-30T15:48:07.042Z,18.33
2022-09-30T15:50:40.794Z,18.63
2022-09-30T15:53:24.227Z,20.77
2022-09-30T15:55:55.563Z,20.33
2022-09-30T15:58:38.900Z,22.55
2022-09-30T16:01:14.787Z,22.88
2022-09-30T16:03:53.176Z,23.20
2022-09-30T16:06:26.243Z,22.30
2022-09-30T16:09:01.550Z,22.83
2022-09-30T16:11:34.771Z,25.17
2022-09-30T16:14:06.081Z,23.60
2022-09-30T16:16:36.613Z,24.65
2022-09-30T16:19:06.436Z,23.90
2022-09-30T16:21:50.496Z,23.38
2022-09-30T16:24:47.502Z,27.08
2022-09-30T16:27:23.534Z,30.42
2022-09-30T16:29:51.757Z,30.55
2022-09-30T16:32:19.825Z,35.60
2022-09-30T16:34:47.733Z,31.92
2022-09-30T16:37:19.600Z,28.00
2022-09-30T16:39:50.067Z,29.90
2022-09-30T16:42:19.469Z,26.77
2022-09-30T16:44:47.347Z,27.17
2022-09-30T16:47:17.288Z,28.00
2022-09-30T16:49:47.244Z,28.67
2022-09-30T16:52:15.754Z,28.40
2022-09-30T16:54:43.764Z,30.95
2022-09-30T16:57:17.045Z,30.60
2022-09-30T16:59:44.809Z,32.30
2022-09-30T17:02:16.260Z,34.30
2022-09-30T17:04:45.425Z,34.08
2022-09-30T17:07:14.902Z,36.85
2022-09-30T17:09:44.114Z,40.88
2022-09-30T17:12:13.202Z,41.25
2022-09-30T17:14:43.752Z,42.38
2022-09-30T17:17:13.734Z,40.95
2022-09-30T17:19:42.413Z,41.95
2022-09-30T17:22:10.193Z,40.67
2022-09-30T17:24:37.973Z,39.10
2022-09-30T17:27:07.413Z,37.17
2022-09-30T17:29:41.684Z,38.17
2022-09-30T17:32:11.861Z,59.58
2022-09-30T17:34:40.300Z,38.45
2022-09-30T17:39:41.908Z,55.80
2022-09-30T17:42:31.571Z,51.90
2022-09-30T17:44:59.801Z,45.88
2022-09-30T17:47:28.894Z,50.65
2022-09-30T17:49:56.661Z,49.72
2022-09-30T17:52:25.596Z,49.42
2022-09-30T17:54:53.587Z,44.53
2022-09-30T17:57:21.881Z,50.97
2022-09-30T17:59:50.208Z,44.65
2022-09-30T18:02:18.473Z,43.15
2022-09-30T18:04:47.720Z,43.35
2022-09-30T18:07:16.114Z,42.40
2022-09-30T18:09:43.865Z,42.40
2022-09-30T18:12:12.252Z,39.35
2022-09-30T18:14:40.319Z,42.20
2022-09-30T18:17:08.159Z,37.90
2022-09-30T18:19:36.378Z,36.70
2022-09-30T18:22:05.784Z,40.20
2022-09-30T18:24:51.538Z,44.10
2022-09-30T18:27:22.457Z,48.88
2022-09-30T18:29:50.237Z,42.50
2022-09-30T18:32:18.578Z,40.70
2022-09-30T18:34:47.030Z,33.30
2022-09-30T18:37:16.158Z,35.05
2022-09-30T18:39:44.021Z,33.75
2022-09-30T18:42:12.106Z,33.55
2022-09-30T18:44:40.126Z,33.60
2022-09-30T18:47:07.947Z,35.13
2022-09-30T18:49:36.175Z,35.05
2022-09-30T18:52:04.578Z,33.28
2022-09-30T18:54:33.930Z,36.83
2022-09-30T18:57:02.121Z,36.72
2022-09-30T18:59:29.920Z,36.50
2022-09-30T19:01:59.597Z,35.55
2022-09-30T19:04:27.768Z,37.70
2022-09-30T19:06:55.534Z,36.70
2022-09-30T19:09:26.376Z,39.80
2022-09-30T19:11:55.903Z,39.28
2022-09-30T19:14:24.746Z,37.83
2022-09-30T19:16:53.602Z,40.08
2022-09-30T19:19:23.174Z,41.95
2022-09-30T19:21:51.122Z,40.65
2022-09-30T19:24:20.382Z,41.50
2022-09-30T19:26:50.384Z,41.92
2022-09-30T19:29:19.565Z,41.75
2022-09-30T19:31:47.610Z,43.17
2022-09-30T19:34:26.004Z,42.20
2022-09-30T19:36:59.918Z,40.45
2022-09-30T19:39:39.602Z,48.67
2022-09-30T19:42:10.191Z,47.00
2022-09-30T19:44:39.656Z,50.47
2022-09-30T19:47:07.397Z,51.25
2022-09-30T19:49:36.082Z,46.67
2022-09-30T19:52:12.361Z,48.05
2022-09-30T19:54:45.177Z,41.90
2022-09-30T19:57:13.318Z,44.88
2022-09-30T19:59:42.437Z,45.78
2022-09-30T20:02:10.942Z,44.33
2022-09-30T20:04:40.493Z,47.00
2022-09-30T20:07:08.236Z,47.88
2022-09-30T20:09:36.146Z,44.08
2022-09-30T20:12:04.167Z,44.67
2022-09-30T20:14:49.467Z,50.55
2022-09-30T20:17:19.117Z,58.78
2022-09-30T20:20:06.925Z,44.83
2022-09-30T20:22:35.229Z,40.70
2022-09-30T20:25:03.460Z,41.22
2022-09-30T20:27:32.923Z,39.03
2022-09-30T20:30:01.208Z,38.78
2022-09-30T20:32:31.136Z,34.92
2022-09-30T20:34:59.044Z,34.90
2022-09-30T20:37:27.168Z,35.00
2022-09-30T20:39:55.816Z,34.72
2022-09-30T20:42:25.542Z,33.72
2022-09-30T20:44:55.281Z,32.63
2022-09-30T20:47:23.597Z,33.95
2022-09-30T20:49:52.689Z,33.60
2022-09-30T20:52:21.412Z,35.00
2022-09-30T20:54:49.492Z,35.47
2022-09-30T20:57:17.236Z,37.75
2022-09-30T20:59:46.563Z,39.72
2022-09-30T21:02:14.805Z,40.65
2022-09-30T21:04:43.134Z,43.05
2022-09-30T21:07:12.596Z,44.30
2022-09-30T21:09:40.744Z,43.75
2022-09-30T21:12:14.311Z,43.90
2022-09-30T21:14:42.635Z,44.30
2022-09-30T21:17:10.757Z,43.45
2022-09-30T21:19:39.954Z,45.17
2022-09-30T21:22:08.348Z,44.90
2022-09-30T21:24:37.451Z,42.90
2022-09-30T21:27:05.987Z,42.50
2022-09-30T21:29:34.681Z,40.05
2022-09-30T21:32:02.862Z,40.97
2022-09-30T21:34:31.238Z,40.22
2022-09-30T21:36:59.557Z,38.22
2022-09-30T21:39:27.427Z,38.25
2022-09-30T21:41:56.841Z,39.45
2022-09-30T21:44:25.616Z,40.08
2022-09-30T21:46:53.397Z,39.55
2022-09-30T21:49:23.887Z,40.38
2022-09-30T21:51:53.356Z,37.60
2022-09-30T21:54:21.124Z,37.83
2022-09-30T21:56:49.331Z,39.10
2022-09-30T21:59:18.738Z,38.33
2022-09-30T22:01:47.077Z,39.60
2022-09-30T22:04:14.804Z,40.42
2022-09-30T22:06:44.429Z,38.97
2022-09-30T22:09:12.238Z,36.72
2022-09-30T22:11:41.495Z,38.63
2022-09-30T22:14:11.085Z,39.15
2022-09-30T22:16:40.495Z,37.97
2022-09-30T22:19:09.944Z,37.15
2022-09-30T22:21:38.720Z,38.50
2022-09-30T22:24:09.121Z,38.28
2022-09-30T22:26:37.830Z,37.05
2022-09-30T22:29:08.034Z,37.95
2022-09-30T22:31:36.052Z,36.72
2022-09-30T22:34:24.646Z,37.75
2022-09-30T22:37:10.932Z,37.47
2022-09-30T22:39:39.002Z,36.95
2022-09-30T22:42:07.434Z,38.72
2022-09-30T22:44:36.939Z,37.92
2022-09-30T22:47:05.738Z,36.30
2022-09-30T22:49:35.209Z,38.50
2022-09-30T22:52:03.653Z,37.85
2022-09-30T22:54:31.986Z,40.60
2022-09-30T22:57:00.075Z,41.17
2022-09-30T22:59:28.999Z,42.88
2022-09-30T23:01:58.023Z,49.22
2022-09-30T23:04:26.618Z,45.20
2022-09-30T23:06:56.593Z,40.47
2022-09-30T23:09:25.225Z,39.85
2022-09-30T23:11:55.160Z,39.45
2022-09-30T23:14:23.562Z,46.70
2022-09-30T23:16:52.296Z,52.35
2022-09-30T23:19:20.907Z,49.35
2022-09-30T23:21:48.796Z,47.65
2022-09-30T23:24:18.089Z,48.05
2022-09-30T23:26:46.895Z,36.97
2022-09-30T23:29:15.808Z,45.90
2022-09-30T23:31:43.840Z,36.70
2022-09-30T23:34:12.004Z,33.30
2022-09-30T23:36:39.912Z,35.25
2022-09-30T23:39:12.509Z,38.28
2022-09-30T23:41:43.096Z,36.83
2022-09-30T23:44:11.100Z,35.05
2022-09-30T23:46:38.917Z,34.92
2022-09-30T23:49:06.821Z,37.58
2022-09-30T23:51:35.044Z,44.00
2022-09-30T23:54:03.269Z,39.55
2022-09-30T23:56:32.089Z,33.65
2022-09-30T23:59:01.401Z,36.00
